Corvera, Spain
Current Conditions -  °F | °C
As of 2:00 PM on Tuesday 21 Oct 2014 (Local Time) from LEXJ Reporting Station
Few Clouds Few Clouds  
Wind Chill: 68°   Ceiling: Unl
Heat Index: 68°   Visibility: 6mi
Dew Point: 61°   Wind: 14mph
Humidity: 78%   Direction: 270°W
Pressure: 30.27"   Gusts: NA
Location:  43.27°N, 3.95°W
Report Text: LEXJ 211200Z 27012KT 9999 FEW014 20/16 Q1025
Loading
Personal Weather Stations






























Interactive Weather Map
Tropical Storm Tracking
New forecast layout! Learn more

10-Day Weather Forecast

Advertisements
Track Severe Weather on mobile